createdAt,value
2023-11-26T00:01:38.057Z,3.17
2023-11-26T00:06:44.690Z,2.33
2023-11-26T00:11:46.580Z,3.01
2023-11-26T00:16:48.506Z,2.40
2023-11-26T00:21:50.451Z,2.55
2023-11-26T00:26:52.662Z,2.67
2023-11-26T00:31:54.490Z,3.08
2023-11-26T00:36:56.357Z,2.93
2023-11-26T00:41:58.224Z,2.95
2023-11-26T00:47:00.754Z,2.38
2023-11-26T00:52:03.712Z,2.26
2023-11-26T00:57:05.736Z,1.93
2023-11-26T01:02:09.322Z,2.14
2023-11-26T01:07:12.646Z,2.07
2023-11-26T01:12:15.190Z,1.94
2023-11-26T01:17:18.566Z,1.60
2023-11-26T01:22:20.453Z,1.63
2023-11-26T01:27:22.531Z,1.79
2023-11-26T01:32:24.480Z,1.97
2023-11-26T01:37:26.333Z,1.96
2023-11-26T01:42:28.216Z,1.55
2023-11-26T01:47:30.443Z,1.83
2023-11-26T01:52:32.355Z,1.94
2023-11-26T01:57:34.245Z,2.04
2023-11-26T02:02:36.109Z,2.27
2023-11-26T02:07:40.198Z,2.37
2023-11-26T02:13:01.435Z,2.27
2023-11-26T02:18:04.075Z,2.04
2023-11-26T02:23:09.782Z,1.98
2023-11-26T02:28:11.617Z,1.76
2023-11-26T02:33:13.553Z,1.85
2023-11-26T02:38:15.538Z,1.86
2023-11-26T02:43:18.359Z,1.94
2023-11-26T02:48:20.402Z,2.06
2023-11-26T02:53:22.397Z,2.10
2023-11-26T02:58:24.295Z,2.00
2023-11-26T03:03:27.272Z,1.93
2023-11-26T03:08:34.196Z,2.11
2023-11-26T03:13:37.235Z,1.92
2023-11-26T03:18:40.285Z,1.15
2023-11-26T03:23:42.515Z,1.54
2023-11-26T03:28:46.343Z,1.48
2023-11-26T03:33:48.481Z,1.08
2023-11-26T03:38:50.540Z,1.37
2023-11-26T03:43:52.428Z,1.50
2023-11-26T03:48:54.500Z,1.57
2023-11-26T03:53:56.731Z,1.79
2023-11-26T03:58:58.523Z,1.84
2023-11-26T04:04:00.578Z,1.79
2023-11-26T04:09:05.522Z,1.31
2023-11-26T04:14:07.374Z,1.35
2023-11-26T04:19:09.558Z,1.25
2023-11-26T04:24:14.677Z,1.04
2023-11-26T04:29:16.514Z,1.02
2023-11-26T04:34:18.338Z,1.15
2023-11-26T04:39:20.540Z,1.21
2023-11-26T04:44:23.206Z,1.27
2023-11-26T04:49:25.178Z,1.17
2023-11-26T04:54:28.186Z,0.85
2023-11-26T04:59:30.090Z,0.96
2023-11-26T05:04:31.968Z,0.67
2023-11-26T05:09:33.969Z,0.82
2023-11-26T05:14:35.858Z,0.65
2023-11-26T05:19:37.621Z,0.54
2023-11-26T05:24:39.452Z,0.71
2023-11-26T05:29:41.275Z,0.96
2023-11-26T05:34:43.067Z,0.85
2023-11-26T05:39:45.111Z,0.92
2023-11-26T05:44:46.878Z,0.90
2023-11-26T05:49:48.700Z,0.91
2023-11-26T05:54:50.524Z,1.08
2023-11-26T05:59:52.637Z,1.09
2023-11-26T06:04:54.461Z,1.09
2023-11-26T06:09:56.465Z,1.01
2023-11-26T06:14:58.320Z,1.03
2023-11-26T06:20:00.422Z,0.88
2023-11-26T06:25:02.723Z,0.63
2023-11-26T06:30:07.079Z,0.63
2023-11-26T06:35:10.084Z,0.91
2023-11-26T06:40:13.326Z,0.78
2023-11-26T06:45:15.196Z,0.83
2023-11-26T06:50:17.626Z,0.96
2023-11-26T06:55:19.777Z,1.13
2023-11-26T07:00:21.757Z,1.12
2023-11-26T07:05:23.697Z,1.06
2023-11-26T07:10:25.577Z,0.98
2023-11-26T07:15:27.387Z,1.06
2023-11-26T07:20:29.260Z,1.23
2023-11-26T07:25:31.141Z,1.00
2023-11-26T07:30:33.016Z,0.95
2023-11-26T07:35:35.253Z,1.09
2023-11-26T07:40:37.137Z,1.13
2023-11-26T07:45:39.377Z,1.18
2023-11-26T07:50:41.557Z,0.92
2023-11-26T07:55:43.430Z,0.89
2023-11-26T08:00:45.358Z,1.01
2023-11-26T08:05:50.916Z,1.10
2023-11-26T08:10:53.647Z,1.17
2023-11-26T08:15:57.875Z,1.26
2023-11-26T08:21:03.051Z,1.34
2023-11-26T08:26:13.127Z,1.10
2023-11-26T08:31:17.321Z,1.30
2023-11-26T08:36:19.901Z,1.33
2023-11-26T08:41:22.782Z,1.41
2023-11-26T08:46:27.400Z,1.46
2023-11-26T08:51:33.417Z,1.35
2023-11-26T08:56:35.284Z,1.45
2023-11-26T09:01:38.945Z,1.60
2023-11-26T09:06:41.057Z,1.77
2023-11-26T09:11:43.357Z,1.91
2023-11-26T09:16:45.257Z,2.30
2023-11-26T09:21:50.808Z,2.63
2023-11-26T09:26:52.686Z,2.81
2023-11-26T09:31:54.496Z,2.64
2023-11-26T09:36:59.317Z,2.90
2023-11-26T09:42:04.976Z,3.03
2023-11-26T09:47:06.931Z,2.96
2023-11-26T09:52:09.573Z,3.23
2023-11-26T09:57:12.359Z,3.58
2023-11-26T10:02:14.832Z,3.13
2023-11-26T10:07:18.974Z,-0.01
2023-11-26T10:12:20.876Z,-0.77
2023-11-26T10:17:23.680Z,0.42
2023-11-26T10:22:45.144Z,1.62
2023-11-26T10:27:47.701Z,2.14
2023-11-26T10:32:57.735Z,2.58
2023-11-26T10:38:12.111Z,-0.84
2023-11-26T10:43:14.821Z,0.14
2023-11-26T10:48:20.433Z,-1.10
2023-11-26T10:53:43.068Z,-0.15
2023-11-26T10:58:50.053Z,1.17
2023-11-26T11:03:53.346Z,-0.31
2023-11-26T11:08:57.701Z,-0.29
2023-11-26T11:14:00.448Z,0.57
2023-11-26T11:19:02.822Z,0.37
2023-11-26T11:24:19.896Z,1.88
2023-11-26T11:29:35.358Z,-0.74
2023-11-26T11:34:37.197Z,-1.77
2023-11-26T11:39:48.651Z,2.01
2023-11-26T11:44:51.184Z,3.22
2023-11-26T11:49:57.464Z,-2.23
2023-11-26T11:55:28.178Z,-2.10
2023-11-26T12:00:30.823Z,-3.14
2023-11-26T12:05:32.962Z,0.92
2023-11-26T12:10:34.901Z,1.51
2023-11-26T12:15:40.263Z,1.74
2023-11-26T12:20:47.934Z,-1.40
2023-11-26T12:25:53.803Z,-2.82
2023-11-26T12:30:57.691Z,-2.27
2023-11-26T12:35:59.579Z,-0.48
2023-11-26T12:41:02.071Z,-2.32
2023-11-26T12:46:11.440Z,-0.84
2023-11-26T12:51:17.848Z,0.56
2023-11-26T12:56:23.434Z,0.54
2023-11-26T13:01:26.466Z,-0.95
2023-11-26T13:06:31.032Z,-1.32
2023-11-26T13:11:37.665Z,-1.42
2023-11-26T13:16:44.448Z,-1.96
2023-11-26T13:21:49.106Z,-0.94
2023-11-26T13:26:51.360Z,-1.02
2023-11-26T13:31:53.160Z,-0.34
2023-11-26T13:36:55.077Z,-0.50
2023-11-26T13:41:56.960Z,-0.99
2023-11-26T13:46:59.593Z,2.15
2023-11-26T13:52:01.959Z,1.93
2023-11-26T13:57:04.042Z,2.10
2023-11-26T14:02:06.344Z,4.48
2023-11-26T14:07:08.355Z,3.66
2023-11-26T14:12:11.580Z,2.66
2023-11-26T14:17:13.389Z,2.58
2023-11-26T14:22:15.246Z,0.60
2023-11-26T14:27:17.125Z,1.29
2023-11-26T14:32:19.205Z,3.76
2023-11-26T14:37:22.098Z,2.65
2023-11-26T14:42:23.946Z,2.52
2023-11-26T14:47:25.819Z,5.04
2023-11-26T14:52:29.264Z,2.14
2023-11-26T14:57:31.341Z,2.66
2023-11-26T15:02:34.325Z,4.06
2023-11-26T15:07:36.250Z,5.03
2023-11-26T15:12:38.396Z,6.14
2023-11-26T15:17:42.292Z,6.61
2023-11-26T15:22:44.305Z,6.74
2023-11-26T15:27:46.224Z,6.43
2023-11-26T15:32:48.103Z,5.87
2023-11-26T15:37:51.063Z,5.88
2023-11-26T15:42:53.629Z,5.99
2023-11-26T15:47:55.508Z,6.10
2023-11-26T15:52:57.397Z,6.17
2023-11-26T15:57:59.564Z,6.01
2023-11-26T16:03:01.555Z,6.07
2023-11-26T16:08:03.942Z,5.33
2023-11-26T16:13:06.123Z,4.78
2023-11-26T16:18:08.157Z,5.25
2023-11-26T16:23:10.267Z,5.29
2023-11-26T16:28:12.263Z,5.41
2023-11-26T16:33:15.322Z,4.67
2023-11-26T16:38:17.196Z,4.57
2023-11-26T16:43:20.304Z,4.25
2023-11-26T16:48:22.887Z,3.93
2023-11-26T16:53:24.748Z,4.05
2023-11-26T16:58:26.680Z,4.04
2023-11-26T17:03:28.656Z,3.89
2023-11-26T17:08:30.789Z,4.21
2023-11-26T17:13:32.685Z,4.34
2023-11-26T17:18:35.063Z,4.30
2023-11-26T17:23:37.117Z,4.16
2023-11-26T17:28:42.253Z,3.71
2023-11-26T17:33:44.130Z,3.56
2023-11-26T17:38:45.984Z,3.89
2023-11-26T17:43:47.859Z,4.12
2023-11-26T17:48:51.179Z,4.27
2023-11-26T17:53:53.445Z,4.44
2023-11-26T17:58:55.376Z,4.15
2023-11-26T18:03:57.347Z,3.96
2023-11-26T18:08:59.231Z,3.19
2023-11-26T18:14:06.226Z,3.22
2023-11-26T18:19:08.105Z,2.65
2023-11-26T18:24:10.731Z,2.86
2023-11-26T18:29:13.024Z,2.25
2023-11-26T18:34:16.293Z,2.73
2023-11-26T18:39:19.820Z,3.10
2023-11-26T18:44:21.926Z,3.27
2023-11-26T18:49:24.001Z,2.76
2023-11-26T18:54:25.955Z,2.49
2023-11-26T18:59:27.832Z,2.22
2023-11-26T19:04:29.690Z,2.36
2023-11-26T19:09:31.555Z,2.19
2023-11-26T19:14:34.566Z,2.05
2023-11-26T19:19:36.423Z,1.25
2023-11-26T19:24:38.480Z,1.94
2023-11-26T19:29:40.539Z,2.31
2023-11-26T19:34:42.457Z,2.03
2023-11-26T19:39:44.667Z,2.58
2023-11-26T19:44:46.594Z,2.53
2023-11-26T19:49:48.498Z,2.23
2023-11-26T19:54:50.409Z,2.47
2023-11-26T19:59:52.271Z,2.44
2023-11-26T20:04:54.128Z,2.31
2023-11-26T20:09:55.992Z,2.48
2023-11-26T20:14:58.160Z,2.60
2023-11-26T20:20:00.301Z,2.60
2023-11-26T20:25:03.670Z,2.62
2023-11-26T20:30:06.279Z,2.86
2023-11-26T20:35:08.711Z,2.72
2023-11-26T20:40:11.421Z,2.72
2023-11-26T20:45:15.075Z,2.69
2023-11-26T20:50:17.916Z,2.32
2023-11-26T20:55:19.971Z,2.33
2023-11-26T21:00:22.411Z,2.22
2023-11-26T21:05:24.221Z,2.40
2023-11-26T21:10:26.011Z,2.28
2023-11-26T21:15:29.575Z,2.81
2023-11-26T21:20:31.605Z,3.09
2023-11-26T21:25:33.470Z,3.11
2023-11-26T21:30:35.376Z,3.18
2023-11-26T21:35:37.267Z,3.30
2023-11-26T21:40:40.958Z,3.22
2023-11-26T21:45:44.157Z,3.45
2023-11-26T21:50:46.977Z,3.55
2023-11-26T21:55:48.846Z,3.65
2023-11-26T22:00:50.741Z,3.55
2023-11-26T22:05:52.612Z,3.57
2023-11-26T22:10:54.542Z,3.22
2023-11-26T22:15:56.477Z,2.61
2023-11-26T22:20:58.328Z,2.71
2023-11-26T22:26:00.193Z,2.83
2023-11-26T22:31:02.142Z,2.29
2023-11-26T22:36:04.380Z,2.95
2023-11-26T22:41:06.379Z,2.94
2023-11-26T22:46:17.114Z,2.71
2023-11-26T22:51:19.797Z,2.96
2023-11-26T22:56:22.459Z,3.12
2023-11-26T23:01:24.802Z,2.94
2023-11-26T23:06:26.865Z,3.04
2023-11-26T23:11:28.735Z,2.93
2023-11-26T23:16:30.949Z,2.19
2023-11-26T23:21:32.805Z,2.63
2023-11-26T23:26:35.602Z,2.93
2023-11-26T23:31:37.500Z,2.68
2023-11-26T23:36:39.374Z,3.30
2023-11-26T23:41:41.880Z,3.23
2023-11-26T23:46:43.785Z,3.40
2023-11-26T23:51:45.733Z,3.28
2023-11-26T23:56:47.579Z,3.47
